Time;durP1;ratioP1;P1;durP2;ratioP2;P2;SDS_P1;SDS_P2;PMS_P1;PMS_P2;Temp;Humidity;BMP_temperature;BMP_pressure;BME280_temperature;BME280_humidity;BME280_pressure;Samples;Min_cycle;Max_cycle;Signal;HPM_P1;HPM_P2
2022/05/08 00:01:37;;;;;;;9.27;5.65;;;;;;;10.22;58.99;98124.53;10336335;28;20390;-59
2022/05/08 00:06:36;;;;;;;10.80;5.60;;;;;;;10.14;59.00;98122.78;10335470;28;20103;-59
2022/05/08 00:11:35;;;;;;;8.45;4.97;;;;;;;10.04;59.26;98110.59;10336577;28;20053;-59
2022/05/08 00:16:34;;;;;;;7.60;4.25;;;;;;;9.94;58.76;98117.44;10335999;28;20029;-59
2022/05/08 00:21:33;;;;;;;4.88;3.58;;;;;;;9.81;58.00;98106.97;10336136;28;20034;-59
2022/05/08 00:26:32;;;;;;;7.30;3.58;;;;;;;9.88;57.58;98109.59;10336107;28;20468;-59
2022/05/08 00:31:31;;;;;;;7.30;4.22;;;;;;;9.78;58.07;98110.41;10335530;28;20128;-59
2022/05/08 00:36:30;;;;;;;12.07;5.82;;;;;;;9.71;60.42;98116.38;10335445;28;20048;-59
2022/05/08 00:41:29;;;;;;;8.13;5.88;;;;;;;9.48;62.94;98108.41;10335487;28;20060;-60
2022/05/08 00:46:29;;;;;;;14.50;7.97;;;;;;;9.22;64.84;98116.75;10335427;28;20072;-59
2022/05/08 00:51:28;;;;;;;13.15;8.65;;;;;;;9.05;65.94;98118.31;10334976;28;20069;-59
2022/05/08 00:56:27;;;;;;;11.68;8.82;;;;;;;8.93;66.15;98125.09;10334887;28;20065;-59
2022/05/08 01:01:28;;;;;;;14.63;10.27;;;;;;;8.81;66.74;98127.53;10334769;28;20069;-59
2022/05/08 01:06:29;;;;;;;14.43;9.93;;;;;;;8.71;66.99;98121.38;10334256;28;20071;-59
2022/05/08 01:11:28;;;;;;;17.42;10.38;;;;;;;8.29;67.39;98075.13;10333253;28;20539;-59
2022/05/08 01:16:27;;;;;;;15.55;9.88;;;;;;;8.54;67.50;98135.81;10334484;28;20069;-59
2022/05/08 01:21:32;;;;;;;12.90;9.02;;;;;;;8.46;67.56;98127.97;10334085;28;20119;-59
2022/05/08 01:26:31;;;;;;;14.98;9.68;;;;;;;8.37;68.70;98122.66;10333672;28;20069;-59
2022/05/08 01:31:31;;;;;;;12.95;8.52;;;;;;;8.29;69.24;98126.84;10332958;28;20137;-59
2022/05/08 01:36:30;;;;;;;14.27;9.85;;;;;;;8.12;70.72;98129.19;10333355;28;20075;-59
2022/05/08 01:41:29;;;;;;;13.77;9.48;;;;;;;8.03;71.17;98129.91;10332042;28;20041;-59
2022/05/08 01:46:28;;;;;;;15.13;10.30;;;;;;;7.94;71.53;98127.19;10333335;28;20123;-59
2022/05/08 01:51:27;;;;;;;16.75;11.05;;;;;;;7.80;71.78;98128.69;10333015;28;20031;-59
2022/05/08 01:56:26;;;;;;;18.95;12.10;;;;;;;7.75;72.37;98130.34;10332599;28;20065;-59
2022/05/08 02:01:25;;;;;;;17.42;12.10;;;;;;;7.60;73.66;98129.25;10332815;28;20116;-59
2022/05/08 02:06:24;;;;;;;15.98;12.15;;;;;;;7.37;75.47;98136.56;10332682;28;20068;-59
2022/05/08 02:11:23;;;;;;;15.27;11.35;;;;;;;7.03;75.13;98098.97;10332111;28;20026;-59
2022/05/08 02:16:21;;;;;;;16.52;11.95;;;;;;;7.17;76.24;98138.81;10332239;28;20503;-59
2022/05/08 02:21:21;;;;;;;16.77;12.30;;;;;;;7.13;76.57;98139.56;10331571;28;20453;-59
2022/05/08 02:26:20;;;;;;;19.55;12.23;;;;;;;7.08;75.90;98141.22;10331663;28;20079;-59
2022/05/08 02:31:19;;;;;;;18.20;12.63;;;;;;;6.90;76.57;98126.22;10331259;28;20053;-59
2022/05/08 02:36:19;;;;;;;20.00;12.60;;;;;;;6.83;77.51;98135.56;10331871;28;20045;-59
2022/05/08 02:41:17;;;;;;;;;;;;;;;6.77;77.42;98145.78;10330907;28;20133;-59
2022/05/08 02:46:16;;;;;;;20.30;12.05;;;;;;;6.72;77.43;98142.19;10331728;28;20011;-59
2022/05/08 02:51:15;;;;;;;17.33;11.88;;;;;;;6.60;78.40;98147.97;10330885;28;20029;-59
2022/05/08 03:01:31;;;;;;;17.92;11.73;;;;;;;6.51;79.23;98146.91;10331336;28;20508;-59
2022/05/08 03:06:30;;;;;;;17.33;11.85;;;;;;;6.44;79.70;98160.50;10330835;28;20469;-59
2022/05/08 03:11:29;;;;;;;20.42;12.93;;;;;;;6.38;79.26;98154.41;10330509;28;20443;-59
2022/05/08 03:16:29;;;;;;;18.00;12.52;;;;;;;6.36;79.40;98150.03;10330939;28;20065;-59
2022/05/08 03:21:27;;;;;;;17.45;12.95;;;;;;;6.28;79.44;98152.47;10330575;28;20360;-59
2022/05/08 03:26:28;;;;;;;21.00;13.85;;;;;;;6.34;79.15;98162.88;10330766;28;20344;-59
2022/05/08 03:31:27;;;;;;;24.45;15.27;;;;;;;6.36;79.52;98173.25;10331006;28;20571;-59
2022/05/08 03:36:26;;;;;;;20.50;15.20;;;;;;;6.28;80.91;98169.59;10333816;28;20543;-59
2022/05/08 03:41:25;;;;;;;18.77;11.70;;;;;;;6.12;81.69;98179.56;10337400;28;20057;-59
2022/05/08 03:46:24;;;;;;;19.17;12.27;;;;;;;6.06;82.03;98171.69;10337692;28;20120;-59
2022/05/08 03:51:23;;;;;;;20.50;13.38;;;;;;;6.03;82.04;98168.19;10335934;28;20033;-59
2022/05/08 03:56:22;;;;;;;22.17;12.05;;;;;;;6.12;82.04;98184.72;10336932;28;20021;-59
2022/05/08 04:01:21;;;;;;;17.02;13.20;;;;;;;6.16;82.11;98180.50;10337193;28;20403;-59
2022/05/08 04:06:20;;;;;;;19.73;13.82;;;;;;;6.24;82.00;98176.41;10336410;28;20120;-59
2022/05/08 04:11:19;;;;;;;22.60;14.07;;;;;;;6.35;82.26;98179.22;10365989;28;20053;-59
2022/05/08 04:16:18;;;;;;;;;;;;;;;6.46;82.39;98180.31;10393379;28;20060;-59
2022/05/08 04:21:18;;;;;;;21.23;13.23;;;;;;;6.56;81.61;98194.28;10377071;28;20384;-59
2022/05/08 04:26:17;;;;;;;19.90;13.38;;;;;;;6.55;81.58;98169.34;10376837;28;20064;-59
2022/05/08 04:31:16;;;;;;;21.80;14.35;;;;;;;6.73;81.12;98184.34;10377109;28;20048;-59
2022/05/08 04:36:15;;;;;;;24.60;15.70;;;;;;;6.93;81.12;98193.34;10375992;28;20065;-59
2022/05/08 04:41:14;;;;;;;20.83;14.18;;;;;;;7.04;80.89;98202.19;10376393;28;20439;-59
2022/05/08 04:46:13;;;;;;;22.15;13.45;;;;;;;7.25;80.75;98201.75;10376260;28;20039;-59
2022/05/08 04:51:12;;;;;;;19.83;12.63;;;;;;;7.48;79.74;98203.94;10375988;28;20035;-59
2022/05/08 04:56:12;;;;;;;15.65;11.52;;;;;;;7.69;79.64;98200.88;10375840;28;20033;-59
2022/05/08 05:01:11;;;;;;;16.27;9.52;;;;;;;7.90;79.01;98192.63;10375809;28;20067;-59
2022/05/08 05:06:10;;;;;;;18.88;8.60;;;;;;;8.11;76.94;98193.78;10376168;28;20120;-59
2022/05/08 05:11:09;;;;;;;15.10;8.43;;;;;;;8.12;75.85;98157.63;10339117;28;20135;-59
2022/05/08 05:16:08;;;;;;;13.82;7.55;;;;;;;8.55;73.95;98189.28;10298296;28;20072;-59
2022/05/08 05:21:07;;;;;;;11.20;7.22;;;;;;;8.78;72.93;98181.81;10293081;28;20029;-59
2022/05/08 05:26:06;;;;;;;11.77;8.38;;;;;;;9.03;71.77;98175.25;10293308;28;20038;-59
2022/05/08 05:31:05;;;;;;;16.02;9.63;;;;;;;9.27;72.61;98172.06;10292822;28;20045;-59
2022/05/08 05:36:04;;;;;;;14.13;8.15;;;;;;;9.55;71.07;98186.19;10292529;28;20029;-59
2022/05/08 05:41:03;;;;;;;12.73;8.77;;;;;;;9.78;70.69;98186.41;10292505;28;20073;-59
2022/05/08 05:51:19;;;;;;;14.70;7.45;;;;;;;10.29;68.02;98184.25;10292463;28;20401;-59
2022/05/08 05:56:18;;;;;;;11.88;7.63;;;;;;;10.53;66.92;98180.94;10293331;28;20377;-59
2022/05/08 06:01:17;;;;;;;11.10;7.05;;;;;;;10.59;66.28;98172.34;10291777;28;20040;-59
2022/05/08 06:06:17;;;;;;;12.45;7.00;;;;;;;10.87;65.69;98169.84;10291561;28;20034;-59
2022/05/08 06:11:16;;;;;;;11.25;6.82;;;;;;;11.20;66.17;98167.44;10291446;28;20073;-59
2022/05/08 06:16:15;;;;;;;7.80;6.00;;;;;;;11.44;63.84;98171.81;10291498;28;20033;-59
2022/05/08 06:21:14;;;;;;;9.88;6.03;;;;;;;11.59;62.31;98168.38;10291970;28;20045;-59
2022/05/08 06:26:15;;;;;;;8.35;5.78;;;;;;;11.65;61.78;98170.13;10291306;28;20037;-59
2022/05/08 06:31:17;;;;;;;8.88;6.35;;;;;;;11.87;61.21;98171.84;10291678;28;20505;-59
2022/05/08 06:36:16;;;;;;;11.30;6.55;;;;;;;12.05;60.80;98151.94;10289942;28;20466;-59
2022/05/08 06:41:15;;;;;;;11.20;5.70;;;;;;;12.24;59.01;98158.84;10287078;28;20254;-59
2022/05/08 06:46:14;;;;;;;;;;;;;;;12.51;57.96;98170.13;10288104;28;20097;-59
2022/05/08 06:51:13;;;;;;;11.35;6.05;;;;;;;12.73;59.15;98170.94;10288651;28;19952;-59
2022/05/08 06:56:13;;;;;;;7.88;5.55;;;;;;;13.05;58.27;98170.81;10290780;28;20415;-59
2022/05/08 07:06:29;;;;;;;8.63;5.80;;;;;;;13.55;56.77;98159.28;10291616;28;20488;-59
2022/05/08 07:11:30;;;;;;;10.00;5.10;;;;;;;13.81;54.27;98159.97;10294596;28;20503;-59
2022/05/08 07:16:29;;;;;;;9.85;5.85;;;;;;;14.05;54.20;98154.56;10299236;28;20069;-59
2022/05/08 07:21:28;;;;;;;8.13;4.93;;;;;;;14.35;53.63;98153.41;10297775;28;20092;-59
2022/05/08 07:26:27;;;;;;;8.75;5.15;;;;;;;14.60;53.63;98148.81;10298223;28;20040;-59
2022/05/08 07:31:26;;;;;;;6.80;5.32;;;;;;;14.66;53.39;98152.22;10297496;28;20096;-59
2022/05/08 07:36:25;;;;;;;9.55;5.82;;;;;;;14.82;53.01;98149.44;10297795;28;20101;-59
2022/05/08 07:41:24;;;;;;;7.70;5.03;;;;;;;14.89;49.47;98149.41;10297103;28;20167;-59
2022/05/08 07:46:25;;;;;;;9.45;4.72;;;;;;;15.19;50.17;98148.16;10297180;28;20396;-59
2022/05/08 07:51:24;;;;;;;8.65;4.70;;;;;;;15.29;50.12;98149.75;10297113;28;20061;-59
2022/05/08 07:56:23;;;;;;;8.52;4.97;;;;;;;15.56;49.57;98142.41;10296623;28;20022;-59
2022/05/08 08:01:22;;;;;;;7.78;4.53;;;;;;;15.81;46.53;98142.91;10296456;28;20821;-59
2022/05/08 08:06:20;;;;;;;;;;;;;;;15.90;43.26;98142.75;10297107;28;20481;-59
2022/05/08 08:11:20;;;;;;;7.25;3.80;;;;;;;15.96;43.09;98137.44;10295956;28;20016;-59
2022/05/08 08:16:19;;;;;;;6.97;3.70;;;;;;;16.20;43.64;98145.78;10296281;28;20081;-59
2022/05/08 08:21:18;;;;;;;6.85;4.45;;;;;;;16.29;43.55;98117.66;10294030;28;20160;-59
2022/05/08 08:26:17;;;;;;;;;;;;;;;16.63;44.24;98144.97;10296888;28;20116;-59
2022/05/08 08:31:16;;;;;;;6.88;4.18;;;;;;;16.90;44.09;98135.75;10295079;28;19917;-59
2022/05/08 08:36:15;;;;;;;;;;;;;;;16.98;42.88;98135.59;10296105;28;20073;-59
2022/05/08 08:41:15;;;;;;;7.63;4.28;;;;;;;16.92;42.61;98123.47;10294671;28;19932;-59
2022/05/08 08:51:33;;;;;;;8.70;4.10;;;;;;;17.28;42.24;98127.06;10295399;28;20061;-59
2022/05/08 08:56:32;;;;;;;8.18;3.75;;;;;;;17.49;42.49;98115.22;10295137;28;20057;-59
2022/05/08 09:01:32;;;;;;;;;;;;;;;17.72;41.11;98119.09;10294479;28;20085;-59
2022/05/08 09:06:41;;;;;;;8.05;4.07;;;;;;;17.61;39.93;98116.69;10293854;28;19953;-59
2022/05/08 09:11:40;;;;;;;6.25;3.92;;;;;;;17.79;41.50;98120.69;10294126;28;20085;-59
2022/05/08 09:16:52;;;;;;;5.93;3.78;;;;;;;18.05;40.77;98111.31;10293321;28;20469;-59
2022/05/08 09:21:57;;;;;;;5.05;3.53;;;;;;;18.06;39.38;98102.50;10292921;28;20065;-57
2022/05/08 09:27:09;;;;;;;7.80;3.50;;;;;;;18.21;38.74;98117.03;10293858;28;20488;-57
2022/05/08 09:32:09;;;;;;;5.47;3.25;;;;;;;18.39;38.58;98104.28;10292311;28;20465;-57
2022/05/08 09:37:08;;;;;;;5.53;3.30;;;;;;;18.33;38.01;98106.19;10292082;28;20069;-57
2022/05/08 09:42:37;;;;;;;7.47;3.42;;;;;;;18.44;38.69;98101.53;10293333;28;20065;-57
2022/05/08 09:47:47;;;;;;;5.50;3.80;;;;;;;18.45;37.83;98094.50;10292652;28;20081;-57
2022/05/08 09:52:46;;;;;;;7.85;3.60;;;;;;;18.44;37.19;98062.09;10292271;28;20072;-57
2022/05/08 09:57:46;;;;;;;6.50;3.60;;;;;;;18.66;36.43;98083.38;10292815;28;20136;-57
2022/05/08 10:02:46;;;;;;;5.82;3.80;;;;;;;18.82;35.53;98082.06;10292008;28;20128;-57
2022/05/08 10:07:45;;;;;;;5.20;3.45;;;;;;;18.63;35.09;98077.38;10292217;28;20084;-57
2022/05/08 10:18:22;;;;;;;4.80;3.10;;;;;;;18.77;33.92;98081.34;10292417;28;20069;-58
2022/05/08 10:23:34;;;;;;;7.53;3.40;;;;;;;18.80;34.64;98077.75;10291354;28;20065;-58
2022/05/08 10:29:01;;;;;;;3.83;3.17;;;;;;;18.80;34.20;98065.47;10291136;28;20457;-58
2022/05/08 10:34:07;;;;;;;7.25;3.38;;;;;;;19.13;34.70;98057.47;10291868;28;20089;-58
2022/05/08 10:39:41;;;;;;;6.70;2.88;;;;;;;19.09;33.24;98066.41;10291198;28;20069;-58
2022/05/08 10:44:42;;;;;;;5.68;3.40;;;;;;;19.05;34.78;98045.50;10294153;28;20058;-59
2022/05/08 10:49:41;;;;;;;4.90;3.40;;;;;;;19.36;34.75;98054.13;10299207;28;20069;-58
2022/05/08 10:54:58;;;;;;;5.65;3.42;;;;;;;19.54;36.35;98051.84;10300531;28;20022;-58
2022/05/08 10:59:57;;;;;;;7.20;4.15;;;;;;;19.59;34.73;98055.22;10299028;28;20061;-59
2022/05/08 11:04:56;;;;;;;5.53;3.78;;;;;;;19.54;35.08;98059.75;10298442;28;20065;-58
2022/05/08 11:09:55;;;;;;;6.57;4.05;;;;;;;19.47;35.93;98045.91;10315261;28;20116;-58
2022/05/08 11:15:09;;;;;;;7.63;4.13;;;;;;;19.63;35.56;98046.31;10335841;28;20057;-58
2022/05/08 11:20:09;;;;;;;6.03;3.60;;;;;;;19.57;35.10;98043.88;10257604;28;20089;-58
2022/05/08 11:25:14;;;;;;;7.38;3.92;;;;;;;19.69;36.58;98040.81;10257645;28;20085;-58
2022/05/08 11:30:13;;;;;;;5.68;3.33;;;;;;;19.70;35.49;98036.41;10257267;28;20082;-58
2022/05/08 11:40:30;;;;;;;5.75;3.95;;;;;;;20.16;35.71;98026.94;10293944;28;20069;-58
2022/05/08 11:45:29;;;;;;;5.40;3.30;;;;;;;20.15;34.92;98025.25;10296855;28;20513;-58
2022/05/08 11:50:30;;;;;;;6.93;3.30;;;;;;;20.10;35.91;98029.81;10295895;28;20081;-58
2022/05/08 11:55:42;;;;;;;4.88;3.42;;;;;;;20.27;34.97;98017.75;10272407;28;20069;-58
2022/05/08 12:00:41;;;;;;;4.97;3.42;;;;;;;20.69;34.82;98018.91;10326632;28;20045;-58
2022/05/08 12:05:40;;;;;;;4.97;3.22;;;;;;;20.66;34.32;98004.06;10295838;28;20057;-58
2022/05/08 12:10:40;;;;;;;6.32;3.30;;;;;;;20.88;33.90;98006.72;10319894;28;20037;-58
2022/05/08 12:15:39;;;;;;;5.40;3.67;;;;;;;20.82;34.46;97995.53;10336689;28;20465;-58
2022/05/08 12:20:39;;;;;;;7.13;3.15;;;;;;;20.75;33.39;97997.56;10334812;28;20468;-58
2022/05/08 12:25:41;;;;;;;7.00;3.13;;;;;;;20.76;32.73;97995.78;10332903;28;20540;-58
2022/05/08 12:30:40;;;;;;;7.32;3.78;;;;;;;20.77;32.92;97994.84;10306899;28;20600;-58
2022/05/08 12:35:39;;;;;;;5.80;3.10;;;;;;;20.58;32.49;97970.97;10292980;28;20520;-58
2022/05/08 12:40:39;;;;;;;3.83;2.85;;;;;;;20.68;32.11;97996.94;10295383;28;20128;-58
2022/05/08 12:45:40;;;;;;;5.93;3.10;;;;;;;20.67;32.15;97979.38;10295235;28;20563;-58
2022/05/08 12:50:39;;;;;;;5.75;3.17;;;;;;;20.77;32.22;97987.81;10295336;28;20084;-58
2022/05/08 12:55:38;;;;;;;9.13;3.03;;;;;;;21.02;32.20;97978.94;10294963;28;20040;-58
2022/05/08 13:00:37;;;;;;;9.45;4.00;;;;;;;21.12;31.82;97972.38;10293875;28;20180;-58
2022/05/08 13:05:36;;;;;;;5.47;3.08;;;;;;;20.95;30.48;97973.03;10294138;28;20034;-57
2022/05/08 13:10:35;;;;;;;3.72;2.70;;;;;;;20.63;30.62;97972.53;10317604;28;20083;-58
2022/05/08 13:15:34;;;;;;;3.88;2.63;;;;;;;20.84;30.53;97968.19;10335039;28;20068;-58
2022/05/08 13:20:33;;;;;;;6.43;3.00;;;;;;;20.85;30.36;97966.44;10329575;28;20100;-58
2022/05/08 13:25:32;;;;;;;3.95;2.53;;;;;;;21.05;30.20;97945.38;10293145;28;20073;-58
2022/05/08 13:30:31;;;;;;;4.63;2.80;;;;;;;21.26;30.09;97958.66;10293557;28;20059;-58
2022/05/08 13:35:30;;;;;;;4.07;2.38;;;;;;;21.19;30.29;97960.63;10293193;28;20025;-58
2022/05/08 13:40:30;;;;;;;6.00;2.38;;;;;;;21.18;29.89;97943.09;10292950;28;20021;-58
2022/05/08 13:45:29;;;;;;;5.07;2.85;;;;;;;21.37;28.89;97961.72;10292676;28;20080;-57
2022/05/08 13:50:28;;;;;;;4.90;3.42;;;;;;;21.27;28.73;97958.59;10292630;28;20113;-57
2022/05/08 13:55:27;;;;;;;5.38;3.38;;;;;;;21.23;29.52;97950.88;10292502;28;20110;-57
2022/05/08 14:00:26;;;;;;;4.00;2.75;;;;;;;21.37;29.74;97958.22;10292418;28;20759;-57
2022/05/08 14:05:25;;;;;;;4.38;2.85;;;;;;;21.35;28.84;97950.34;10292392;28;20113;-57
2022/05/08 14:10:24;;;;;;;5.28;2.88;;;;;;;21.29;29.07;97951.47;10313929;28;20068;-57
2022/05/08 14:15:24;;;;;;;4.25;2.75;;;;;;;21.08;28.82;97947.91;10332825;28;20460;-58
2022/05/08 14:20:23;;;;;;;7.05;3.20;;;;;;;21.25;28.78;97947.25;10332008;28;20061;-57
2022/05/08 14:25:23;;;;;;;4.13;2.78;;;;;;;21.35;28.60;97945.06;10332235;28;20068;-58
2022/05/08 14:30:22;;;;;;;7.80;2.40;;;;;;;21.37;28.64;97948.50;10332319;28;20072;-58
2022/05/08 14:40:40;;;;;;;6.70;2.67;;;;;;;20.86;28.37;97936.47;10332692;28;20084;-58
2022/05/08 14:45:39;;;;;;;6.15;3.00;;;;;;;20.92;28.00;97941.53;10331701;28;20073;-58
2022/05/08 14:50:38;;;;;;;5.63;2.72;;;;;;;20.75;28.43;97947.47;10331524;28;20571;-58
2022/05/08 14:55:39;;;;;;;6.07;2.85;;;;;;;20.75;27.87;97938.66;10331588;28;20489;-58
2022/05/08 15:00:38;;;;;;;4.65;2.60;;;;;;;20.78;28.26;97949.13;10331686;28;20559;-58
2022/05/08 15:05:38;;;;;;;4.75;2.88;;;;;;;20.59;27.70;97949.84;10331178;28;20069;-58
2022/05/08 15:10:38;;;;;;;5.30;2.60;;;;;;;20.58;27.94;97948.09;10331301;28;20076;-58
2022/05/08 15:15:37;;;;;;;9.82;3.22;;;;;;;20.67;28.35;97952.16;10331415;28;20073;-58
2022/05/08 15:20:36;;;;;;;6.28;3.00;;;;;;;20.48;28.19;97952.88;10346716;28;20061;-58
2022/05/08 15:25:35;;;;;;;5.00;2.88;;;;;;;20.50;28.87;97939.63;10330643;28;20130;-58
2022/05/08 15:30:34;;;;;;;6.07;2.67;;;;;;;20.41;28.49;97947.88;10331965;28;20084;-58
2022/05/08 15:35:37;;;;;;;4.15;2.35;;;;;;;20.20;28.33;97947.72;10338649;28;20103;-58
2022/05/08 15:40:36;;;;;;;3.03;2.45;;;;;;;20.12;29.22;97936.63;10337835;28;20076;-58
2022/05/08 15:45:38;;;;;;;3.83;2.83;;;;;;;20.14;29.55;97942.72;10337799;28;20065;-58
2022/05/08 15:50:37;;;;;;;4.40;2.03;;;;;;;20.01;29.44;97946.69;10338209;28;20065;-58
2022/05/08 15:55:36;;;;;;;8.18;2.78;;;;;;;19.81;29.62;97950.91;10337316;28;20030;-58
2022/05/08 16:00:35;;;;;;;5.40;2.80;;;;;;;19.82;29.31;97942.06;10337331;28;20061;-58
2022/05/08 16:05:34;;;;;;;5.65;2.53;;;;;;;19.88;29.70;97946.25;10337402;28;20029;-58
2022/05/08 16:10:34;;;;;;;4.57;2.53;;;;;;;19.70;30.36;97955.69;10336438;28;20108;-57
2022/05/08 16:26:09;;;;;;;5.18;2.38;;;;;;;19.59;30.48;97953.41;10336465;28;20061;-58
2022/05/08 16:31:08;;;;;;;3.60;2.00;;;;;;;19.54;30.55;97957.94;10336206;28;20088;-58
2022/05/08 16:36:07;;;;;;;3.13;2.10;;;;;;;19.36;30.29;97959.41;10318268;28;20034;-58
2022/05/08 16:41:07;;;;;;;4.38;2.03;;;;;;;19.21;30.66;97966.03;10292080;28;20065;-58
2022/05/08 16:46:06;;;;;;;5.65;2.53;;;;;;;19.08;30.58;97969.09;10295346;28;20053;-58
2022/05/08 16:51:05;;;;;;;4.72;2.30;;;;;;;18.97;30.90;97970.31;10295045;28;20116;-58
2022/05/08 16:56:05;;;;;;;5.55;2.42;;;;;;;18.82;32.06;97978.66;10295532;28;20068;-60
2022/05/08 17:01:05;;;;;;;7.47;2.72;;;;;;;18.72;32.16;97980.72;10294133;28;20061;-58
2022/05/08 17:06:05;;;;;;;4.65;2.45;;;;;;;18.53;32.32;97967.25;10294484;28;20468;-58
2022/05/08 17:11:06;;;;;;;5.60;2.58;;;;;;;18.45;32.12;97978.88;10320970;28;20069;-58
2022/05/08 17:16:05;;;;;;;5.35;3.03;;;;;;;18.28;32.27;97982.84;10334732;28;20080;-57
2022/05/08 17:21:04;;;;;;;7.80;2.70;;;;;;;18.17;32.39;97995.41;10334418;28;20460;-57
2022/05/08 17:26:03;;;;;;;5.18;3.03;;;;;;;18.08;32.88;98007.06;10334479;28;20475;-57
2022/05/08 17:31:03;;;;;;;10.20;4.40;;;;;;;17.87;34.12;98007.59;10333368;28;20044;-58
2022/05/08 17:36:02;;;;;;;10.05;4.97;;;;;;;17.61;35.29;98016.97;10327466;28;20572;-57
2022/05/08 17:41:02;;;;;;;11.13;4.60;;;;;;;17.28;36.13;98014.28;10293284;28;20459;-58
2022/05/08 17:46:02;;;;;;;12.57;5.47;;;;;;;16.99;36.70;98014.13;10297169;28;20077;-58
2022/05/08 17:51:02;;;;;;;12.15;5.10;;;;;;;16.61;37.77;98021.03;10292949;28;20058;-58
2022/05/08 17:56:01;;;;;;;7.95;4.70;;;;;;;16.38;38.35;98024.97;10303555;28;20341;-58
2022/05/08 18:01:00;;;;;;;;;;;;;;;16.14;39.18;98025.44;10302630;28;20057;-58
2022/05/08 18:05:59;;;;;;;7.83;4.13;;;;;;;15.88;40.09;98038.13;10297967;28;20008;-57
2022/05/08 18:10:59;;;;;;;5.70;3.90;;;;;;;15.59;40.62;98033.34;10298185;28;20604;-58
2022/05/08 18:15:59;;;;;;;13.13;4.57;;;;;;;15.29;40.74;98032.09;10305422;28;20501;-58
2022/05/08 18:20:58;;;;;;;;;;;;;;;15.16;41.79;98054.09;10332970;28;20504;-58
2022/05/08 18:25:57;;;;;;;7.83;3.13;;;;;;;14.92;41.79;98056.16;10331802;28;19952;-58
2022/05/08 18:30:58;;;;;;;4.60;2.67;;;;;;;14.70;42.51;98063.41;10331148;28;20069;-58
2022/05/08 18:35:59;;;;;;;9.45;3.30;;;;;;;14.46;42.94;98056.72;10331976;28;20509;-58
2022/05/08 18:40:59;;;;;;;4.63;3.00;;;;;;;14.30;43.42;98073.44;10331813;28;20061;-58
2022/05/08 18:45:59;;;;;;;5.70;3.10;;;;;;;14.11;44.16;98085.81;10331254;28;20431;-57
2022/05/08 18:50:57;;;;;;;;;;;;;;;13.91;44.64;98083.38;10332568;28;20535;-57
2022/05/08 18:55:56;;;;;;;8.93;5.05;;;;;;;13.74;45.35;98091.34;10332394;28;19906;-58
2022/05/08 19:00:55;;;;;;;9.80;4.93;;;;;;;13.47;45.71;98077.63;10316901;28;20103;-58
2022/05/08 19:05:54;;;;;;;8.13;3.72;;;;;;;13.38;46.30;98088.13;10294081;28;20038;-58
2022/05/08 19:10:53;;;;;;;8.77;5.03;;;;;;;13.21;46.87;98103.88;10324536;28;20029;-58
2022/05/08 19:15:52;;;;;;;11.23;4.50;;;;;;;13.03;47.56;98102.22;10332501;28;20524;-57
2022/05/08 19:20:52;;;;;;;9.55;5.07;;;;;;;12.93;48.36;98110.97;10297815;28;20523;-58
2022/05/08 19:25:52;;;;;;;11.60;5.72;;;;;;;12.81;48.86;98105.78;10297921;28;20069;-58
2022/05/08 19:37:58;;;;;;;10.57;6.28;;;;;;;12.66;50.11;98111.94;10296956;28;20092;-58
2022/05/08 19:41:28;;;;;;;10.48;5.60;;;;;;;12.37;52.98;98122.41;10297705;28;20453;-58
2022/05/08 19:46:27;;;;;;;11.23;5.65;;;;;;;12.26;53.65;98118.09;10297392;28;20054;-58
2022/05/08 19:51:26;;;;;;;10.05;5.28;;;;;;;12.10;54.17;98116.38;10296638;28;20104;-58
2022/05/08 19:56:25;;;;;;;9.10;5.00;;;;;;;11.93;54.65;98129.41;10297462;28;20068;-58
2022/05/08 20:01:24;;;;;;;12.27;5.50;;;;;;;11.80;55.53;98131.13;10296060;28;20616;-58
2022/05/08 20:06:23;;;;;;;8.70;5.40;;;;;;;11.64;55.76;98125.06;10296604;28;20076;-57
2022/05/08 20:11:22;;;;;;;10.88;5.60;;;;;;;11.55;56.27;98127.66;10326275;28;20021;-58
2022/05/08 20:16:21;;;;;;;12.70;5.47;;;;;;;11.49;56.15;98126.78;10335366;28;20037;-58
2022/05/08 20:26:38;;;;;;;9.13;5.63;;;;;;;11.29;57.65;98140.63;10336151;28;20468;-58
2022/05/08 20:31:37;;;;;;;9.68;6.10;;;;;;;11.25;57.04;98151.84;10334244;28;20468;-58
2022/05/08 20:36:36;;;;;;;10.85;5.38;;;;;;;11.16;58.17;98154.44;10336408;28;20025;-58
2022/05/08 20:41:38;;;;;;;11.05;5.72;;;;;;;11.07;59.81;98147.47;10336258;28;20503;-57
2022/05/08 20:46:37;;;;;;;10.48;5.55;;;;;;;10.99;60.33;98157.84;10335035;28;20065;-58
2022/05/08 20:51:36;;;;;;;10.57;6.60;;;;;;;10.94;60.24;98158.66;10334698;28;20044;-58
2022/05/08 20:56:38;;;;;;;13.07;7.53;;;;;;;10.73;62.52;98159.41;10335557;28;20560;-58
2022/05/08 21:01:37;;;;;;;18.08;8.00;;;;;;;10.62;62.73;98157.63;10335353;28;20192;-57
2022/05/08 21:11:56;;;;;;;14.35;6.78;;;;;;;10.61;61.94;98155.91;10333980;28;20713;-58
2022/05/08 21:16:55;;;;;;;15.68;7.30;;;;;;;10.55;62.51;98158.44;10334285;28;20052;-58
2022/05/08 21:21:54;;;;;;;15.77;8.02;;;;;;;10.38;63.61;98160.09;10334273;28;20029;-57
2022/05/08 21:26:53;;;;;;;17.10;9.77;;;;;;;10.19;64.45;98170.34;10333637;28;20061;-57
2022/05/08 21:31:52;;;;;;;14.20;7.90;;;;;;;10.09;64.62;98173.69;10333833;28;20038;-58
2022/05/08 21:36:51;;;;;;;14.85;6.85;;;;;;;10.04;64.65;98183.19;10333139;28;20116;-59
2022/05/08 21:41:50;;;;;;;12.80;7.28;;;;;;;9.90;65.03;98184.78;10332889;28;20488;-58
2022/05/08 21:46:49;;;;;;;13.10;7.20;;;;;;;9.81;65.11;98189.91;10333597;28;20026;-58
2022/05/08 21:51:48;;;;;;;13.63;6.80;;;;;;;9.75;65.01;98189.00;10333315;28;20041;-58
2022/05/08 21:56:47;;;;;;;12.32;7.00;;;;;;;9.70;65.62;98188.09;10333541;28;20471;-59
2022/05/08 22:01:46;;;;;;;12.13;6.40;;;;;;;9.66;65.52;98196.69;10332880;28;20515;-58
2022/05/08 22:06:45;;;;;;;11.90;6.80;;;;;;;9.53;65.93;98187.91;10332090;28;20476;-58
2022/05/08 22:11:44;;;;;;;10.13;5.80;;;;;;;9.44;65.78;98194.72;10330320;28;20475;-58
2022/05/08 22:16:43;;;;;;;11.40;6.28;;;;;;;9.34;65.91;98186.84;10329860;28;20465;-58
2022/05/08 22:21:51;;;;;;;11.52;6.35;;;;;;;9.22;66.06;98194.44;10328919;28;20110;-58
2022/05/08 22:26:50;;;;;;;11.80;6.72;;;;;;;9.15;66.73;98193.50;10331694;28;20547;-58
2022/05/08 22:31:49;;;;;;;13.75;6.32;;;;;;;9.03;67.51;98192.50;10332058;28;20531;-58
2022/05/08 22:36:48;;;;;;;9.70;5.70;;;;;;;8.96;68.24;98199.31;10331759;28;20054;-58
2022/05/08 22:41:47;;;;;;;11.95;6.80;;;;;;;8.78;69.55;98199.94;10331057;28;20040;-58
2022/05/08 22:46:46;;;;;;;14.07;6.25;;;;;;;8.70;69.18;98199.84;10331850;28;20056;-58
2022/05/08 22:51:45;;;;;;;14.23;6.60;;;;;;;8.54;69.25;98187.56;10331399;28;20041;-58
2022/05/08 22:56:44;;;;;;;17.02;7.55;;;;;;;8.54;69.32;98203.06;10331639;28;20040;-58
2022/05/08 23:01:43;;;;;;;13.77;7.07;;;;;;;8.36;70.03;98187.28;10331223;28;20096;-58
2022/05/08 23:06:42;;;;;;;12.20;6.95;;;;;;;8.32;70.70;98188.06;10330820;28;20025;-58
2022/05/08 23:11:43;;;;;;;14.55;8.30;;;;;;;8.23;71.51;98187.09;10330829;28;20362;-58
2022/05/08 23:16:42;;;;;;;15.45;8.15;;;;;;;8.14;71.91;98191.28;10330517;28;20057;-58
2022/05/08 23:21:40;;;;;;;16.15;8.60;;;;;;;8.14;72.31;98196.44;10330622;28;20468;-58
2022/05/08 23:26:39;;;;;;;21.08;9.00;;;;;;;8.13;71.92;98192.09;10330711;28;20465;-58
2022/05/08 23:31:41;;;;;;;30.88;10.02;;;;;;;8.09;72.03;98197.22;10330376;28;20579;-58
2022/05/08 23:36:40;;;;;;;30.27;10.55;;;;;;;8.07;72.83;98196.34;10329876;28;20069;-58
2022/05/08 23:41:39;;;;;;;26.92;8.82;;;;;;;8.02;72.97;98197.13;10330156;28;20112;-58
2022/05/08 23:46:37;;;;;;;10.43;5.78;;;;;;;7.91;73.00;98178.84;10330334;28;20116;-58
2022/05/08 23:51:36;;;;;;;11.23;7.28;;;;;;;7.92;73.42;98196.09;10329995;28;20128;-58
2022/05/08 23:56:35;;;;;;;13.55;6.65;;;;;;;7.89;73.57;98198.63;10337705;28;20061;-58
